createdAt,value
2023-09-17T00:00:26.707Z,17.81
2023-09-17T00:02:54.211Z,17.77
2023-09-17T00:05:21.732Z,17.74
2023-09-17T00:07:49.154Z,17.71
2023-09-17T00:10:16.668Z,17.68
2023-09-17T00:12:43.972Z,17.65
2023-09-17T00:15:11.357Z,17.63
2023-09-17T00:17:38.804Z,17.62
2023-09-17T00:20:11.944Z,17.59
2023-09-17T00:22:40.132Z,17.59
2023-09-17T00:25:07.799Z,17.52
2023-09-17T00:27:35.132Z,17.48
2023-09-17T00:30:02.611Z,17.44
2023-09-17T00:32:29.933Z,17.43
2023-09-17T00:34:57.245Z,17.39
2023-09-17T00:37:24.877Z,17.40
2023-09-17T00:39:52.126Z,17.36
2023-09-17T00:42:19.473Z,17.34
2023-09-17T00:44:46.826Z,17.27
2023-09-17T00:47:14.658Z,17.21
2023-09-17T00:49:42.602Z,17.21
2023-09-17T00:52:16.853Z,17.15
2023-09-17T00:54:46.032Z,17.10
2023-09-17T00:57:16.560Z,17.04
2023-09-17T00:59:50.514Z,17.04
2023-09-17T01:02:20.740Z,17.04
2023-09-17T01:04:52.609Z,17.03
2023-09-17T01:07:23.317Z,17.02
2023-09-17T01:09:51.397Z,16.99
2023-09-17T01:12:19.360Z,16.99
2023-09-17T01:14:47.781Z,16.94
2023-09-17T01:17:15.275Z,16.90
2023-09-17T01:19:44.089Z,16.90
2023-09-17T01:22:23.937Z,16.87
2023-09-17T01:25:29.873Z,16.83
2023-09-17T01:27:57.351Z,16.77
2023-09-17T01:30:24.643Z,16.76
2023-09-17T01:32:52.514Z,16.76
2023-09-17T01:35:20.113Z,16.70
2023-09-17T01:37:50.589Z,16.68
2023-09-17T01:40:18.621Z,16.65
2023-09-17T01:42:47.540Z,16.63
2023-09-17T01:45:17.893Z,16.61
2023-09-17T01:47:47.385Z,16.58
2023-09-17T01:50:16.591Z,16.53
2023-09-17T01:52:45.286Z,16.50
2023-09-17T01:55:13.671Z,16.49
2023-09-17T01:57:42.276Z,16.51
2023-09-17T02:00:17.918Z,16.52
2023-09-17T02:02:50.550Z,16.50
2023-09-17T02:05:18.606Z,16.56
2023-09-17T02:07:46.607Z,16.54
2023-09-17T02:10:14.414Z,16.51
2023-09-17T02:12:41.964Z,16.42
2023-09-17T02:15:10.723Z,16.37
2023-09-17T02:17:38.036Z,16.34
2023-09-17T02:20:09.585Z,16.38
2023-09-17T02:22:37.396Z,16.34
2023-09-17T02:25:06.559Z,16.30
2023-09-17T02:27:35.036Z,16.29
2023-09-17T02:30:03.570Z,16.28
2023-09-17T02:32:30.889Z,16.29
2023-09-17T02:34:58.730Z,16.30
2023-09-17T02:37:26.012Z,16.23
2023-09-17T02:39:53.386Z,16.19
2023-09-17T02:42:21.196Z,16.16
2023-09-17T02:44:48.471Z,16.16
2023-09-17T02:47:16.324Z,16.14
2023-09-17T02:49:43.768Z,16.09
2023-09-17T02:52:11.220Z,16.07
2023-09-17T02:54:38.567Z,16.05
2023-09-17T02:57:05.805Z,16.06
2023-09-17T02:59:35.643Z,16.07
2023-09-17T03:02:05.034Z,16.07
2023-09-17T03:04:32.422Z,16.09
2023-09-17T03:06:59.830Z,16.12
2023-09-17T03:09:27.158Z,16.14
2023-09-17T03:11:54.417Z,16.12
2023-09-17T03:14:21.978Z,16.11
2023-09-17T03:16:49.785Z,16.09
2023-09-17T03:19:17.132Z,16.05
2023-09-17T03:21:44.500Z,16.03
2023-09-17T03:24:12.635Z,16.02
2023-09-17T03:26:39.884Z,16.02
2023-09-17T03:29:08.859Z,16.01
2023-09-17T03:31:36.309Z,16.00
2023-09-17T03:34:04.380Z,16.00
2023-09-17T03:36:31.853Z,16.00
2023-09-17T03:39:01.176Z,16.01
2023-09-17T03:41:28.734Z,15.99
2023-09-17T03:43:56.609Z,15.95
2023-09-17T03:46:25.236Z,15.95
2023-09-17T03:48:54.663Z,15.94
2023-09-17T03:51:22.299Z,15.91
2023-09-17T03:53:51.552Z,15.88
2023-09-17T03:56:20.187Z,15.85
2023-09-17T03:58:48.772Z,15.80
2023-09-17T04:01:16.360Z,15.77
2023-09-17T04:03:43.771Z,15.76
2023-09-17T04:06:11.082Z,15.77
2023-09-17T04:08:38.465Z,15.75
2023-09-17T04:11:06.316Z,15.74
2023-09-17T04:13:33.762Z,15.70
2023-09-17T04:16:01.205Z,15.65
2023-09-17T04:18:28.571Z,15.64
2023-09-17T04:20:56.566Z,15.60
2023-09-17T04:23:26.026Z,15.58
2023-09-17T04:25:53.447Z,15.55
2023-09-17T04:28:20.882Z,15.54
2023-09-17T04:30:48.236Z,15.51
2023-09-17T04:33:16.079Z,15.50
2023-09-17T04:35:43.358Z,15.48
2023-09-17T04:38:11.454Z,15.45
2023-09-17T04:40:39.080Z,15.42
2023-09-17T04:43:06.652Z,15.47
2023-09-17T04:45:40.832Z,15.52
2023-09-17T04:48:10.330Z,15.53
2023-09-17T04:50:38.054Z,15.55
2023-09-17T04:53:05.340Z,15.55
2023-09-17T04:55:32.650Z,15.56
2023-09-17T04:58:00.962Z,15.56
2023-09-17T05:00:28.259Z,15.59
2023-09-17T05:02:55.747Z,15.61
2023-09-17T05:05:26.453Z,15.63
2023-09-17T05:07:54.518Z,15.66
2023-09-17T05:10:22.535Z,15.72
2023-09-17T05:12:50.345Z,15.76
2023-09-17T05:15:17.878Z,15.79
2023-09-17T05:17:45.107Z,15.84
2023-09-17T05:20:12.621Z,15.89
2023-09-17T05:22:40.028Z,15.95
2023-09-17T05:25:12.189Z,15.98
2023-09-17T05:27:39.729Z,16.01
2023-09-17T05:30:07.714Z,16.05
2023-09-17T05:32:35.148Z,16.13
2023-09-17T05:35:04.208Z,16.22
2023-09-17T05:37:32.245Z,16.33
2023-09-17T05:39:59.874Z,16.42
2023-09-17T05:42:27.581Z,16.49
2023-09-17T05:44:54.990Z,16.59
2023-09-17T05:47:22.215Z,16.68
2023-09-17T05:49:49.459Z,16.73
2023-09-17T05:52:17.466Z,16.81
2023-09-17T05:54:44.825Z,16.91
2023-09-17T05:57:12.310Z,17.03
2023-09-17T05:59:39.863Z,17.12
2023-09-17T06:02:08.878Z,17.24
2023-09-17T06:04:37.032Z,17.38
2023-09-17T06:07:04.673Z,17.50
2023-09-17T06:09:32.818Z,17.64
2023-09-17T06:12:00.079Z,17.71
2023-09-17T06:14:27.708Z,17.78
2023-09-17T06:16:58.033Z,17.89
2023-09-17T06:19:27.099Z,17.98
2023-09-17T06:21:54.957Z,18.02
2023-09-17T06:24:22.186Z,18.06
2023-09-17T06:26:49.449Z,18.12
2023-09-17T06:29:17.309Z,18.22
2023-09-17T06:31:45.470Z,18.32
2023-09-17T06:34:12.847Z,18.40
2023-09-17T06:36:40.311Z,18.53
2023-09-17T06:39:07.993Z,18.62
2023-09-17T06:41:38.231Z,18.69
2023-09-17T06:44:07.135Z,18.78
2023-09-17T06:46:34.862Z,18.91
2023-09-17T06:49:02.587Z,19.01
2023-09-17T06:51:29.781Z,19.05
2023-09-17T06:53:57.149Z,19.10
2023-09-17T06:56:27.241Z,19.16
2023-09-17T06:58:54.526Z,19.27
2023-09-17T07:01:21.852Z,19.31
2023-09-17T07:03:49.509Z,19.38
2023-09-17T07:06:17.347Z,19.51
2023-09-17T07:08:44.821Z,19.65
2023-09-17T07:11:12.313Z,19.81
2023-09-17T07:13:41.798Z,19.95
2023-09-17T07:16:09.554Z,20.07
2023-09-17T07:18:37.344Z,20.22
2023-09-17T07:21:05.262Z,20.35
2023-09-17T07:23:33.744Z,20.45
2023-09-17T07:26:01.524Z,20.58
2023-09-17T07:28:30.508Z,20.70
2023-09-17T07:30:58.462Z,20.78
2023-09-17T07:33:26.037Z,20.89
2023-09-17T07:35:53.878Z,21.01
2023-09-17T07:38:21.337Z,21.04
2023-09-17T07:40:49.382Z,21.11
2023-09-17T07:43:16.699Z,21.28
2023-09-17T07:45:43.926Z,21.42
2023-09-17T07:48:11.506Z,21.61
2023-09-17T07:50:41.252Z,21.70
2023-09-17T07:53:08.954Z,21.79
2023-09-17T07:55:36.395Z,21.91
2023-09-17T07:58:04.577Z,22.08
2023-09-17T08:00:32.125Z,22.25
2023-09-17T08:02:59.629Z,22.32
2023-09-17T08:05:27.778Z,22.41
2023-09-17T08:07:55.200Z,22.49
2023-09-17T08:10:22.911Z,22.54
2023-09-17T08:12:50.155Z,22.60
2023-09-17T08:15:18.216Z,22.73
2023-09-17T08:17:45.552Z,22.80
2023-09-17T08:20:13.050Z,22.91
2023-09-17T08:22:40.594Z,23.04
2023-09-17T08:25:10.036Z,23.12
2023-09-17T08:27:37.657Z,23.05
2023-09-17T08:30:08.365Z,23.15
2023-09-17T08:32:35.669Z,23.29
2023-09-17T08:35:04.238Z,23.34
2023-09-17T08:37:31.540Z,23.53
2023-09-17T08:39:59.235Z,23.56
2023-09-17T08:42:29.039Z,23.63
2023-09-17T08:45:00.227Z,23.82
2023-09-17T08:47:27.692Z,23.94
2023-09-17T08:49:54.960Z,24.03
2023-09-17T08:52:23.319Z,24.09
2023-09-17T08:54:50.844Z,24.16
2023-09-17T08:57:22.879Z,24.24
2023-09-17T08:59:55.211Z,24.37
2023-09-17T09:02:26.938Z,24.53
2023-09-17T09:04:55.503Z,24.47
2023-09-17T09:07:23.598Z,24.60
2023-09-17T09:09:54.680Z,24.62
2023-09-17T09:12:22.417Z,24.68
2023-09-17T09:14:49.759Z,24.70
2023-09-17T09:17:17.070Z,24.84
2023-09-17T09:19:44.526Z,24.94
2023-09-17T09:22:11.720Z,25.06
2023-09-17T09:24:49.068Z,25.18
2023-09-17T09:27:16.717Z,25.22
2023-09-17T09:30:10.732Z,25.27
2023-09-17T09:32:38.860Z,25.26
2023-09-17T09:35:06.876Z,25.33
2023-09-17T09:37:35.640Z,25.40
2023-09-17T09:40:04.122Z,25.49
2023-09-17T09:42:31.742Z,25.57
2023-09-17T09:44:59.223Z,25.75
2023-09-17T09:47:26.641Z,25.81
2023-09-17T09:49:54.691Z,25.93
2023-09-17T09:52:22.786Z,26.07
2023-09-17T09:54:50.209Z,26.07
2023-09-17T09:57:19.797Z,26.07
2023-09-17T09:59:49.145Z,25.98
2023-09-17T10:02:18.511Z,25.96
2023-09-17T10:04:46.952Z,26.05
2023-09-17T10:07:15.656Z,26.14
2023-09-17T10:09:43.621Z,26.13
2023-09-17T10:12:11.394Z,26.24
2023-09-17T10:14:39.353Z,26.34
2023-09-17T10:17:08.198Z,26.40
2023-09-17T10:19:36.187Z,26.45
2023-09-17T10:22:09.186Z,26.68
2023-09-17T10:24:37.529Z,26.80
2023-09-17T10:27:07.028Z,26.79
2023-09-17T10:29:35.863Z,26.84
2023-09-17T10:32:04.461Z,26.93
2023-09-17T10:34:34.279Z,27.21
2023-09-17T10:37:04.183Z,27.30
2023-09-17T10:39:34.210Z,27.50
2023-09-17T10:42:03.693Z,27.66
2023-09-17T10:44:31.976Z,27.42
2023-09-17T10:47:03.174Z,27.51
2023-09-17T10:49:32.878Z,27.61
2023-09-17T10:52:01.458Z,27.75
2023-09-17T10:54:28.678Z,27.67
2023-09-17T10:56:56.798Z,27.96
2023-09-17T10:59:25.319Z,28.20
2023-09-17T11:01:53.312Z,28.24
2023-09-17T11:04:23.087Z,28.42
2023-09-17T11:06:51.162Z,28.70
2023-09-17T11:09:19.532Z,28.83
2023-09-17T11:11:46.967Z,28.93
2023-09-17T11:14:15.354Z,29.20
2023-09-17T11:16:43.653Z,29.34
2023-09-17T11:19:17.082Z,29.54
2023-09-17T11:22:03.096Z,29.82
2023-09-17T11:24:33.794Z,30.07
2023-09-17T11:27:05.588Z,30.14
2023-09-17T11:29:41.234Z,30.12
2023-09-17T11:32:08.909Z,30.18
2023-09-17T11:34:38.870Z,30.25
2023-09-17T11:37:07.114Z,30.44
2023-09-17T11:39:36.744Z,30.50
2023-09-17T11:42:06.966Z,30.57
2023-09-17T11:44:36.444Z,30.60
2023-09-17T11:47:05.346Z,30.80
2023-09-17T11:49:35.753Z,30.99
2023-09-17T11:52:12.727Z,30.94
2023-09-17T11:54:52.309Z,31.25
2023-09-17T11:57:27.258Z,31.77
2023-09-17T11:59:59.323Z,32.25
2023-09-17T12:02:27.826Z,32.60
2023-09-17T12:04:55.974Z,32.89
2023-09-17T12:07:23.588Z,32.86
2023-09-17T12:10:08.823Z,33.16
2023-09-17T12:12:37.394Z,33.27
2023-09-17T12:15:06.080Z,33.26
2023-09-17T12:17:43.947Z,33.19
2023-09-17T12:20:32.109Z,32.81
2023-09-17T12:23:04.648Z,32.69
2023-09-17T12:25:44.100Z,32.46
2023-09-17T12:28:11.728Z,32.70
2023-09-17T12:30:38.996Z,33.01
2023-09-17T12:33:06.381Z,33.31
2023-09-17T12:35:34.576Z,33.53
2023-09-17T12:38:01.950Z,34.19
2023-09-17T12:40:29.278Z,34.86
2023-09-17T12:42:56.576Z,35.62
2023-09-17T12:45:24.635Z,37.07
2023-09-17T12:47:52.189Z,38.65
2023-09-17T12:50:20.162Z,40.32
2023-09-17T12:52:47.462Z,42.10
2023-09-17T12:55:14.712Z,42.72
2023-09-17T12:57:41.906Z,44.70
2023-09-17T13:00:09.703Z,45.32
2023-09-17T13:02:38.775Z,47.10
2023-09-17T13:05:06.752Z,47.76
2023-09-17T13:07:34.620Z,48.63
2023-09-17T13:10:02.113Z,50.25
2023-09-17T13:12:29.453Z,50.87
2023-09-17T13:14:57.380Z,51.62
2023-09-17T13:17:27.638Z,51.02
2023-09-17T13:19:55.274Z,51.12
2023-09-17T13:22:23.117Z,49.43
2023-09-17T13:24:50.825Z,47.14
2023-09-17T13:27:19.926Z,46.19
2023-09-17T13:29:54.843Z,46.83
2023-09-17T13:32:22.474Z,46.33
2023-09-17T13:34:50.521Z,45.10
2023-09-17T13:37:18.345Z,44.90
2023-09-17T13:39:50.702Z,43.68
2023-09-17T13:42:19.400Z,43.42
2023-09-17T13:44:46.720Z,43.89
2023-09-17T13:47:14.078Z,43.54
2023-09-17T13:49:42.336Z,43.39
2023-09-17T13:52:10.183Z,42.90
2023-09-17T13:54:39.900Z,42.84
2023-09-17T13:57:07.759Z,41.23
2023-09-17T13:59:36.661Z,42.12
2023-09-17T14:02:05.173Z,41.55
2023-09-17T14:04:34.110Z,40.95
2023-09-17T14:07:01.673Z,40.97
2023-09-17T14:09:29.211Z,42.86
2023-09-17T14:11:56.416Z,45.13
2023-09-17T14:14:23.602Z,44.81
2023-09-17T14:16:51.228Z,44.92
2023-09-17T14:19:20.024Z,45.12
2023-09-17T14:21:48.958Z,45.77
2023-09-17T14:24:16.360Z,46.97
2023-09-17T14:26:44.824Z,47.79
2023-09-17T14:29:12.319Z,49.92
2023-09-17T14:31:42.698Z,49.44
2023-09-17T14:34:11.696Z,47.90
2023-09-17T14:36:38.904Z,47.80
2023-09-17T14:39:06.233Z,49.63
2023-09-17T14:41:33.470Z,50.96
2023-09-17T14:44:01.910Z,50.10
2023-09-17T14:46:29.392Z,50.25
2023-09-17T14:48:56.622Z,50.43
2023-09-17T14:51:24.041Z,50.59
2023-09-17T14:53:51.292Z,50.41
2023-09-17T14:56:18.712Z,51.49
2023-09-17T14:58:46.058Z,51.95
2023-09-17T15:01:33.193Z,52.72
2023-09-17T15:04:02.119Z,52.31
2023-09-17T15:06:30.605Z,52.19
2023-09-17T15:08:59.642Z,52.62
2023-09-17T15:11:27.409Z,51.18
2023-09-17T15:13:54.871Z,51.77
2023-09-17T15:16:22.775Z,51.92
2023-09-17T15:18:50.591Z,51.29
2023-09-17T15:21:18.832Z,51.17
2023-09-17T15:23:46.436Z,52.13
2023-09-17T15:26:13.845Z,50.32
2023-09-17T15:28:41.501Z,50.53
2023-09-17T15:31:09.787Z,50.99
2023-09-17T15:33:40.253Z,50.66
2023-09-17T15:36:07.746Z,50.99
2023-09-17T15:38:35.064Z,50.99
2023-09-17T15:41:04.631Z,50.41
2023-09-17T15:43:36.771Z,49.92
2023-09-17T15:46:04.386Z,49.68
2023-09-17T15:48:31.846Z,50.01
2023-09-17T15:51:03.388Z,49.24
2023-09-17T15:53:32.541Z,48.93
2023-09-17T15:56:00.462Z,49.35
2023-09-17T15:58:27.923Z,49.05
2023-09-17T16:00:55.568Z,48.70
2023-09-17T16:03:23.114Z,48.48
2023-09-17T16:05:50.792Z,47.34
2023-09-17T16:08:18.119Z,46.97
2023-09-17T16:10:45.542Z,46.55
2023-09-17T16:13:13.940Z,46.54
2023-09-17T16:15:41.677Z,45.68
2023-09-17T16:18:10.788Z,45.03
2023-09-17T16:20:38.234Z,45.10
2023-09-17T16:23:09.067Z,43.37
2023-09-17T16:25:36.469Z,39.94
2023-09-17T16:28:04.044Z,37.35
2023-09-17T16:30:32.210Z,35.59
2023-09-17T16:32:59.817Z,34.02
2023-09-17T16:35:27.669Z,33.21
2023-09-17T16:37:55.033Z,32.23
2023-09-17T16:40:23.622Z,31.66
2023-09-17T16:43:05.780Z,31.00
2023-09-17T16:45:46.479Z,30.38
2023-09-17T16:48:28.835Z,29.93
2023-09-17T16:50:58.521Z,29.48
2023-09-17T16:53:27.359Z,29.23
2023-09-17T16:55:55.731Z,28.80
2023-09-17T16:58:24.097Z,28.46
2023-09-17T17:00:52.730Z,28.17
2023-09-17T17:03:20.145Z,27.97
2023-09-17T17:05:47.410Z,27.73
2023-09-17T17:08:17.433Z,27.58
2023-09-17T17:10:44.830Z,27.36
2023-09-17T17:13:13.240Z,27.10
2023-09-17T17:15:40.565Z,26.89
2023-09-17T17:18:11.271Z,26.70
2023-09-17T17:20:40.159Z,26.56
2023-09-17T17:23:08.080Z,26.39
2023-09-17T17:25:37.983Z,26.23
2023-09-17T17:28:06.494Z,26.09
2023-09-17T17:30:34.120Z,25.91
2023-09-17T17:33:01.555Z,25.80
2023-09-17T17:35:28.853Z,25.66
2023-09-17T17:37:56.297Z,25.55
2023-09-17T17:40:28.521Z,25.45
2023-09-17T17:43:00.398Z,25.35
2023-09-17T17:45:31.297Z,25.27
2023-09-17T17:48:06.744Z,25.16
2023-09-17T17:50:37.653Z,25.07
2023-09-17T17:53:06.856Z,24.98
2023-09-17T17:55:34.256Z,24.88
2023-09-17T17:58:01.615Z,24.80
2023-09-17T18:00:28.853Z,24.70
2023-09-17T18:02:56.509Z,24.60
2023-09-17T18:05:23.955Z,24.53
2023-09-17T18:07:51.445Z,24.44
2023-09-17T18:10:21.089Z,24.34
2023-09-17T18:12:49.082Z,24.28
2023-09-17T18:15:19.557Z,24.24
2023-09-17T18:17:54.917Z,24.17
2023-09-17T18:20:22.447Z,24.11
2023-09-17T18:22:49.860Z,24.04
2023-09-17T18:25:17.368Z,23.96
2023-09-17T18:27:44.797Z,23.87
2023-09-17T18:30:12.409Z,23.81
2023-09-17T18:32:39.686Z,23.75
2023-09-17T18:35:07.432Z,23.69
2023-09-17T18:37:36.046Z,23.60
2023-09-17T18:40:05.155Z,23.55
2023-09-17T18:42:34.177Z,23.49
2023-09-17T18:45:04.694Z,23.43
2023-09-17T18:47:32.061Z,23.35
2023-09-17T18:49:59.613Z,23.30
2023-09-17T18:52:29.324Z,23.25
2023-09-17T18:55:01.029Z,23.19
2023-09-17T18:57:30.212Z,23.15
2023-09-17T18:59:57.973Z,23.12
2023-09-17T19:02:25.279Z,23.07
2023-09-17T19:04:52.775Z,23.02
2023-09-17T19:07:20.048Z,22.95
2023-09-17T19:09:49.047Z,22.92
2023-09-17T19:12:16.741Z,22.88
2023-09-17T19:14:47.429Z,22.83
2023-09-17T19:17:16.192Z,22.81
2023-09-17T19:19:43.497Z,22.81
2023-09-17T19:22:10.936Z,22.81
2023-09-17T19:24:38.295Z,22.74
2023-09-17T19:27:05.767Z,22.70
2023-09-17T19:29:34.084Z,22.65
2023-09-17T19:32:03.207Z,22.62
2023-09-17T19:34:30.981Z,22.58
2023-09-17T19:36:59.230Z,22.58
2023-09-17T19:39:28.664Z,22.53
2023-09-17T19:41:57.069Z,22.47
2023-09-17T19:44:24.499Z,22.42
2023-09-17T19:46:59.441Z,22.36
2023-09-17T19:49:27.738Z,22.33
2023-09-17T19:51:56.275Z,22.30
2023-09-17T19:54:24.250Z,22.26
2023-09-17T19:56:51.664Z,22.24
2023-09-17T19:59:19.021Z,22.19
2023-09-17T20:01:48.980Z,22.15
2023-09-17T20:04:16.747Z,22.12
2023-09-17T20:06:54.743Z,22.09
2023-09-17T20:09:22.988Z,22.05
2023-09-17T20:11:52.924Z,22.02
2023-09-17T20:14:22.099Z,21.98
2023-09-17T20:16:52.246Z,21.92
2023-09-17T20:19:23.877Z,21.88
2023-09-17T20:21:51.432Z,21.83
2023-09-17T20:24:30.122Z,21.78
2023-09-17T20:26:58.403Z,21.73
2023-09-17T20:29:26.976Z,21.72
2023-09-17T20:31:54.770Z,21.68
2023-09-17T20:34:25.064Z,21.66
2023-09-17T20:36:53.448Z,21.64
2023-09-17T20:39:21.128Z,21.65
2023-09-17T20:41:49.155Z,21.66
2023-09-17T20:44:16.809Z,21.62
2023-09-17T20:46:44.247Z,21.58
2023-09-17T20:49:11.527Z,21.56
2023-09-17T20:51:39.920Z,21.52
2023-09-17T20:54:07.303Z,21.50
2023-09-17T20:56:35.824Z,21.48
2023-09-17T20:59:04.039Z,21.48
2023-09-17T21:01:31.669Z,21.44
2023-09-17T21:03:59.219Z,21.44
2023-09-17T21:06:26.478Z,21.42
2023-09-17T21:08:54.941Z,21.39
2023-09-17T21:11:22.290Z,21.39
2023-09-17T21:13:49.651Z,21.35
2023-09-17T21:16:19.626Z,21.34
2023-09-17T21:18:47.803Z,21.31
2023-09-17T21:21:15.141Z,21.28
2023-09-17T21:23:42.399Z,21.24
2023-09-17T21:26:12.793Z,21.21
2023-09-17T21:28:41.722Z,21.20
2023-09-17T21:31:09.102Z,21.19
2023-09-17T21:33:36.519Z,21.17
2023-09-17T21:36:04.323Z,21.16
2023-09-17T21:38:32.104Z,21.15
2023-09-17T21:41:01.137Z,21.13
2023-09-17T21:43:29.360Z,21.12
2023-09-17T21:45:58.648Z,21.08
2023-09-17T21:48:31.332Z,21.06
2023-09-17T21:51:06.173Z,21.02
2023-09-17T21:53:36.781Z,21.01
2023-09-17T21:56:12.362Z,21.01
2023-09-17T21:58:44.974Z,20.97
2023-09-17T22:01:12.983Z,20.93
2023-09-17T22:03:43.198Z,20.89
2023-09-17T22:06:13.763Z,20.88
2023-09-17T22:08:45.186Z,20.85
2023-09-17T22:11:16.347Z,20.83
2023-09-17T22:13:44.755Z,20.82
2023-09-17T22:16:14.800Z,20.79
2023-09-17T22:18:44.131Z,20.78
2023-09-17T22:21:14.423Z,20.73
2023-09-17T22:23:41.854Z,20.70
2023-09-17T22:26:09.345Z,20.65
2023-09-17T22:28:37.393Z,20.62
2023-09-17T22:31:16.706Z,20.62
2023-09-17T22:33:46.608Z,20.60
2023-09-17T22:36:13.995Z,20.60
2023-09-17T22:38:44.363Z,20.59
2023-09-17T22:41:27.120Z,20.58
2023-09-17T22:44:04.690Z,20.56
2023-09-17T22:46:44.455Z,20.55
2023-09-17T22:49:12.221Z,20.53
2023-09-17T22:51:42.826Z,20.52
2023-09-17T22:54:11.113Z,20.52
2023-09-17T22:56:41.545Z,20.52
2023-09-17T22:59:09.954Z,20.51
2023-09-17T23:01:39.661Z,20.51
2023-09-17T23:04:10.348Z,20.50
2023-09-17T23:06:37.770Z,20.48
2023-09-17T23:09:05.678Z,20.45
2023-09-17T23:11:34.866Z,20.44
2023-09-17T23:14:08.006Z,20.40
2023-09-17T23:16:39.257Z,20.38
2023-09-17T23:19:12.547Z,20.35
2023-09-17T23:21:41.318Z,20.34
2023-09-17T23:24:14.278Z,20.31
2023-09-17T23:26:42.671Z,20.28
2023-09-17T23:29:14.353Z,20.23
2023-09-17T23:31:41.686Z,20.18
2023-09-17T23:34:11.905Z,20.17
2023-09-17T23:36:39.433Z,20.16
2023-09-17T23:39:12.566Z,20.14
2023-09-17T23:41:40.336Z,20.11
2023-09-17T23:44:10.952Z,20.08
2023-09-17T23:46:40.782Z,20.03
2023-09-17T23:49:10.462Z,20.00
2023-09-17T23:51:39.111Z,19.95
2023-09-17T23:54:13.491Z,19.92
2023-09-17T23:56:41.500Z,19.87
2023-09-17T23:59:10.126Z,19.84
